sensor_id;sensor_type;location;lat;lon;timestamp;temperature;humidity
15930;DHT22;8064;51.142;4.780;2022-08-06T00:02:05;14.00;90.70
15930;DHT22;8064;51.142;4.780;2022-08-06T00:04:31;14.00;90.80
15930;DHT22;8064;51.142;4.780;2022-08-06T00:06:57;14.00;90.90
15930;DHT22;8064;51.142;4.780;2022-08-06T00:09:23;13.90;90.90
15930;DHT22;8064;51.142;4.780;2022-08-06T00:11:49;13.90;91.00
15930;DHT22;8064;51.142;4.780;2022-08-06T00:14:14;13.90;91.00
15930;DHT22;8064;51.142;4.780;2022-08-06T00:16:41;13.80;91.00
15930;DHT22;8064;51.142;4.780;2022-08-06T00:19:06;13.80;91.10
15930;DHT22;8064;51.142;4.780;2022-08-06T00:21:32;13.80;91.20
15930;DHT22;8064;51.142;4.780;2022-08-06T00:23:58;13.80;91.30
15930;DHT22;8064;51.142;4.780;2022-08-06T00:26:24;13.70;91.30
15930;DHT22;8064;51.142;4.780;2022-08-06T00:28:50;13.70;91.40
15930;DHT22;8064;51.142;4.780;2022-08-06T00:31:16;13.70;91.40
15930;DHT22;8064;51.142;4.780;2022-08-06T00:33:42;13.70;91.50
15930;DHT22;8064;51.142;4.780;2022-08-06T00:36:09;13.70;91.50
15930;DHT22;8064;51.142;4.780;2022-08-06T00:38:34;13.60;91.50
15930;DHT22;8064;51.142;4.780;2022-08-06T00:41:02;13.60;91.50
15930;DHT22;8064;51.142;4.780;2022-08-06T00:43:28;13.60;91.50
15930;DHT22;8064;51.142;4.780;2022-08-06T00:45:54;13.50;91.60
15930;DHT22;8064;51.142;4.780;2022-08-06T00:48:20;13.50;91.60
15930;DHT22;8064;51.142;4.780;2022-08-06T00:50:45;13.50;91.60
15930;DHT22;8064;51.142;4.780;2022-08-06T00:53:11;13.40;91.60
15930;DHT22;8064;51.142;4.780;2022-08-06T00:55:37;13.40;91.70
15930;DHT22;8064;51.142;4.780;2022-08-06T00:58:04;13.40;91.80
15930;DHT22;8064;51.142;4.780;2022-08-06T01:00:30;13.40;91.80
15930;DHT22;8064;51.142;4.780;2022-08-06T01:02:55;13.30;91.80
15930;DHT22;8064;51.142;4.780;2022-08-06T01:05:21;13.30;91.80
15930;DHT22;8064;51.142;4.780;2022-08-06T01:07:47;13.20;91.90
15930;DHT22;8064;51.142;4.780;2022-08-06T01:10:13;13.20;91.90
15930;DHT22;8064;51.142;4.780;2022-08-06T01:12:38;13.20;92.00
15930;DHT22;8064;51.142;4.780;2022-08-06T01:15:05;13.10;92.00
15930;DHT22;8064;51.142;4.780;2022-08-06T01:26:34;13.00;92.20
15930;DHT22;8064;51.142;4.780;2022-08-06T01:29:04;13.00;92.20
15930;DHT22;8064;51.142;4.780;2022-08-06T01:31:43;13.00;92.20
15930;DHT22;8064;51.142;4.780;2022-08-06T01:34:19;13.00;92.30
15930;DHT22;8064;51.142;4.780;2022-08-06T01:36:49;12.90;92.40
15930;DHT22;8064;51.142;4.780;2022-08-06T01:39:19;13.00;92.40
15930;DHT22;8064;51.142;4.780;2022-08-06T01:41:49;12.90;92.50
15930;DHT22;8064;51.142;4.780;2022-08-06T01:44:19;12.90;92.40
15930;DHT22;8064;51.142;4.780;2022-08-06T01:46:49;12.90;92.40
15930;DHT22;8064;51.142;4.780;2022-08-06T01:49:22;12.90;92.50
15930;DHT22;8064;51.142;4.780;2022-08-06T01:51:51;12.80;92.50
15930;DHT22;8064;51.142;4.780;2022-08-06T01:54:18;12.80;92.50
15930;DHT22;8064;51.142;4.780;2022-08-06T01:56:47;12.80;92.60
15930;DHT22;8064;51.142;4.780;2022-08-06T01:59:16;12.70;92.60
15930;DHT22;8064;51.142;4.780;2022-08-06T02:01:47;12.70;92.70
15930;DHT22;8064;51.142;4.780;2022-08-06T02:04:13;12.60;92.60
15930;DHT22;8064;51.142;4.780;2022-08-06T02:06:44;12.60;92.60
15930;DHT22;8064;51.142;4.780;2022-08-06T02:09:15;12.60;92.70
15930;DHT22;8064;51.142;4.780;2022-08-06T02:11:44;12.50;92.60
15930;DHT22;8064;51.142;4.780;2022-08-06T02:14:13;12.50;92.70
15930;DHT22;8064;51.142;4.780;2022-08-06T02:16:41;12.40;92.70
15930;DHT22;8064;51.142;4.780;2022-08-06T02:19:11;12.40;92.70
15930;DHT22;8064;51.142;4.780;2022-08-06T02:21:41;12.40;92.80
15930;DHT22;8064;51.142;4.780;2022-08-06T02:24:08;12.40;92.90
15930;DHT22;8064;51.142;4.780;2022-08-06T02:26:37;12.40;92.90
15930;DHT22;8064;51.142;4.780;2022-08-06T02:29:06;12.40;92.90
15930;DHT22;8064;51.142;4.780;2022-08-06T02:31:34;12.40;92.90
15930;DHT22;8064;51.142;4.780;2022-08-06T02:34:00;12.40;92.90
15930;DHT22;8064;51.142;4.780;2022-08-06T02:36:40;12.40;92.90
15930;DHT22;8064;51.142;4.780;2022-08-06T02:39:11;12.40;92.90
15930;DHT22;8064;51.142;4.780;2022-08-06T02:41:42;12.30;92.80
15930;DHT22;8064;51.142;4.780;2022-08-06T02:44:16;12.30;92.80
15930;DHT22;8064;51.142;4.780;2022-08-06T02:46:48;12.30;92.80
15930;DHT22;8064;51.142;4.780;2022-08-06T02:49:20;12.20;93.20
15930;DHT22;8064;51.142;4.780;2022-08-06T02:52:04;12.10;92.90
15930;DHT22;8064;51.142;4.780;2022-08-06T02:54:40;12.10;93.00
15930;DHT22;8064;51.142;4.780;2022-08-06T02:57:14;12.10;93.00
15930;DHT22;8064;51.142;4.780;2022-08-06T02:59:45;12.00;93.00
15930;DHT22;8064;51.142;4.780;2022-08-06T03:02:12;12.00;93.00
15930;DHT22;8064;51.142;4.780;2022-08-06T03:04:44;12.00;93.10
15930;DHT22;8064;51.142;4.780;2022-08-06T03:07:12;12.00;93.20
15930;DHT22;8064;51.142;4.780;2022-08-06T03:09:40;12.00;93.20
15930;DHT22;8064;51.142;4.780;2022-08-06T03:12:09;11.90;93.20
15930;DHT22;8064;51.142;4.780;2022-08-06T03:14:37;11.90;93.40
15930;DHT22;8064;51.142;4.780;2022-08-06T03:17:05;12.00;93.40
15930;DHT22;8064;51.142;4.780;2022-08-06T03:19:32;12.00;93.40
15930;DHT22;8064;51.142;4.780;2022-08-06T03:21:58;12.00;93.40
15930;DHT22;8064;51.142;4.780;2022-08-06T03:24:26;12.00;93.40
15930;DHT22;8064;51.142;4.780;2022-08-06T03:26:56;12.00;93.50
15930;DHT22;8064;51.142;4.780;2022-08-06T03:29:25;12.00;93.50
15930;DHT22;8064;51.142;4.780;2022-08-06T03:31:51;11.90;93.50
15930;DHT22;8064;51.142;4.780;2022-08-06T03:34:17;11.90;93.50
15930;DHT22;8064;51.142;4.780;2022-08-06T03:36:43;11.90;93.50
15930;DHT22;8064;51.142;4.780;2022-08-06T03:39:11;11.90;93.60
15930;DHT22;8064;51.142;4.780;2022-08-06T03:41:39;11.90;93.60
15930;DHT22;8064;51.142;4.780;2022-08-06T03:44:06;11.90;93.70
15930;DHT22;8064;51.142;4.780;2022-08-06T03:49:19;11.90;93.80
15930;DHT22;8064;51.142;4.780;2022-08-06T03:51:49;11.90;93.80
15930;DHT22;8064;51.142;4.780;2022-08-06T03:54:18;11.90;93.80
15930;DHT22;8064;51.142;4.780;2022-08-06T03:56:45;11.90;93.70
15930;DHT22;8064;51.142;4.780;2022-08-06T03:59:13;11.90;93.70
15930;DHT22;8064;51.142;4.780;2022-08-06T04:01:42;11.90;93.70
15930;DHT22;8064;51.142;4.780;2022-08-06T04:04:10;11.90;93.70
15930;DHT22;8064;51.142;4.780;2022-08-06T04:06:36;11.90;93.80
15930;DHT22;8064;51.142;4.780;2022-08-06T04:09:05;11.90;93.80
15930;DHT22;8064;51.142;4.780;2022-08-06T04:11:32;11.90;93.80
15930;DHT22;8064;51.142;4.780;2022-08-06T04:13:59;11.90;94.20
15930;DHT22;8064;51.142;4.780;2022-08-06T04:16:26;11.90;93.80
15930;DHT22;8064;51.142;4.780;2022-08-06T04:18:53;11.90;93.90
15930;DHT22;8064;51.142;4.780;2022-08-06T04:21:23;11.90;93.90
15930;DHT22;8064;51.142;4.780;2022-08-06T04:23:50;11.80;93.90
15930;DHT22;8064;51.142;4.780;2022-08-06T04:26:19;11.90;93.90
15930;DHT22;8064;51.142;4.780;2022-08-06T04:28:49;11.90;93.90
15930;DHT22;8064;51.142;4.780;2022-08-06T04:31:17;11.90;93.90
15930;DHT22;8064;51.142;4.780;2022-08-06T04:33:44;11.90;93.90
15930;DHT22;8064;51.142;4.780;2022-08-06T04:36:11;11.90;93.90
15930;DHT22;8064;51.142;4.780;2022-08-06T04:38:37;11.90;94.00
15930;DHT22;8064;51.142;4.780;2022-08-06T04:41:04;11.90;94.00
15930;DHT22;8064;51.142;4.780;2022-08-06T04:43:30;11.90;93.90
15930;DHT22;8064;51.142;4.780;2022-08-06T04:45:56;11.90;93.90
15930;DHT22;8064;51.142;4.780;2022-08-06T04:48:23;11.90;93.90
15930;DHT22;8064;51.142;4.780;2022-08-06T04:50:49;12.00;94.00
15930;DHT22;8064;51.142;4.780;2022-08-06T04:53:17;12.00;94.00
15930;DHT22;8064;51.142;4.780;2022-08-06T04:55:44;12.00;94.00
15930;DHT22;8064;51.142;4.780;2022-08-06T04:58:14;12.00;94.00
15930;DHT22;8064;51.142;4.780;2022-08-06T05:00:44;12.10;94.00
15930;DHT22;8064;51.142;4.780;2022-08-06T05:03:10;12.10;94.00
15930;DHT22;8064;51.142;4.780;2022-08-06T05:05:41;12.20;94.00
15930;DHT22;8064;51.142;4.780;2022-08-06T05:08:08;12.20;94.00
15930;DHT22;8064;51.142;4.780;2022-08-06T05:10:45;12.30;94.00
15930;DHT22;8064;51.142;4.780;2022-08-06T05:13:13;12.40;94.00
15930;DHT22;8064;51.142;4.780;2022-08-06T05:15:43;12.40;94.00
15930;DHT22;8064;51.142;4.780;2022-08-06T05:18:16;12.50;94.10
15930;DHT22;8064;51.142;4.780;2022-08-06T05:20:48;12.50;94.10
15930;DHT22;8064;51.142;4.780;2022-08-06T05:23:18;12.60;94.10
15930;DHT22;8064;51.142;4.780;2022-08-06T05:25:46;12.70;94.20
15930;DHT22;8064;51.142;4.780;2022-08-06T05:28:11;12.80;94.20
15930;DHT22;8064;51.142;4.780;2022-08-06T05:30:56;12.90;94.30
15930;DHT22;8064;51.142;4.780;2022-08-06T05:33:25;13.00;94.40
15930;DHT22;8064;51.142;4.780;2022-08-06T05:35:51;13.10;94.30
15930;DHT22;8064;51.142;4.780;2022-08-06T05:38:16;13.20;94.30
15930;DHT22;8064;51.142;4.780;2022-08-06T05:40:42;13.30;94.30
15930;DHT22;8064;51.142;4.780;2022-08-06T05:43:08;13.40;94.40
15930;DHT22;8064;51.142;4.780;2022-08-06T05:45:34;13.50;94.40
15930;DHT22;8064;51.142;4.780;2022-08-06T05:48:03;13.60;94.50
15930;DHT22;8064;51.142;4.780;2022-08-06T05:50:32;13.70;94.50
15930;DHT22;8064;51.142;4.780;2022-08-06T05:53:06;13.80;94.60
15930;DHT22;8064;51.142;4.780;2022-08-06T05:55:40;13.90;94.60
15930;DHT22;8064;51.142;4.780;2022-08-06T05:58:23;14.00;94.70
15930;DHT22;8064;51.142;4.780;2022-08-06T06:00:50;14.10;94.70
15930;DHT22;8064;51.142;4.780;2022-08-06T06:03:18;14.20;94.70
15930;DHT22;8064;51.142;4.780;2022-08-06T06:05:45;14.30;94.70
15930;DHT22;8064;51.142;4.780;2022-08-06T06:08:11;14.40;94.70
15930;DHT22;8064;51.142;4.780;2022-08-06T06:10:38;14.60;94.80
15930;DHT22;8064;51.142;4.780;2022-08-06T06:13:05;14.70;94.90
15930;DHT22;8064;51.142;4.780;2022-08-06T06:15:37;14.80;94.90
15930;DHT22;8064;51.142;4.780;2022-08-06T06:18:32;15.00;95.00
15930;DHT22;8064;51.142;4.780;2022-08-06T06:24:00;15.40;94.90
15930;DHT22;8064;51.142;4.780;2022-08-06T06:34:57;16.20;94.60
15930;DHT22;8064;51.142;4.780;2022-08-06T06:43:12;16.90;94.20
15930;DHT22;8064;51.142;4.780;2022-08-06T06:46:02;17.10;94.00
15930;DHT22;8064;51.142;4.780;2022-08-06T06:48:35;17.30;93.90
15930;DHT22;8064;51.142;4.780;2022-08-06T06:51:06;17.60;93.80
15930;DHT22;8064;51.142;4.780;2022-08-06T06:53:35;17.80;93.70
15930;DHT22;8064;51.142;4.780;2022-08-06T06:56:03;17.90;93.50
15930;DHT22;8064;51.142;4.780;2022-08-06T07:01:28;18.30;93.30
15930;DHT22;8064;51.142;4.780;2022-08-06T07:03:59;18.50;93.10
15930;DHT22;8064;51.142;4.780;2022-08-06T07:06:26;18.70;93.00
15930;DHT22;8064;51.142;4.780;2022-08-06T07:08:53;18.90;92.80
15930;DHT22;8064;51.142;4.780;2022-08-06T07:11:23;19.00;92.60
15930;DHT22;8064;51.142;4.780;2022-08-06T07:13:50;19.20;92.40
15930;DHT22;8064;51.142;4.780;2022-08-06T07:16:20;19.40;92.20
15930;DHT22;8064;51.142;4.780;2022-08-06T07:18:47;19.60;92.20
15930;DHT22;8064;51.142;4.780;2022-08-06T07:21:16;19.70;92.00
15930;DHT22;8064;51.142;4.780;2022-08-06T07:23:45;20.00;91.80
15930;DHT22;8064;51.142;4.780;2022-08-06T07:26:13;20.10;91.40
15930;DHT22;8064;51.142;4.780;2022-08-06T07:28:41;20.30;91.20
15930;DHT22;8064;51.142;4.780;2022-08-06T07:31:08;20.50;91.00
15930;DHT22;8064;51.142;4.780;2022-08-06T07:33:35;20.70;90.70
15930;DHT22;8064;51.142;4.780;2022-08-06T07:36:02;20.90;90.70
15930;DHT22;8064;51.142;4.780;2022-08-06T07:38:29;21.10;90.10
15930;DHT22;8064;51.142;4.780;2022-08-06T07:41:01;21.20;89.90
15930;DHT22;8064;51.142;4.780;2022-08-06T07:43:32;21.40;89.50
15930;DHT22;8064;51.142;4.780;2022-08-06T07:46:02;21.50;88.50
15930;DHT22;8064;51.142;4.780;2022-08-06T07:48:32;21.60;87.70
15930;DHT22;8064;51.142;4.780;2022-08-06T07:51:00;21.70;86.90
15930;DHT22;8064;51.142;4.780;2022-08-06T07:53:26;21.80;86.60
15930;DHT22;8064;51.142;4.780;2022-08-06T07:55:52;21.90;86.10
15930;DHT22;8064;51.142;4.780;2022-08-06T07:58:18;22.00;85.70
15930;DHT22;8064;51.142;4.780;2022-08-06T08:00:45;22.10;85.00
15930;DHT22;8064;51.142;4.780;2022-08-06T08:03:13;22.20;84.20
15930;DHT22;8064;51.142;4.780;2022-08-06T08:05:59;22.20;83.70
15930;DHT22;8064;51.142;4.780;2022-08-06T08:08:59;22.30;83.50
15930;DHT22;8064;51.142;4.780;2022-08-06T08:11:26;22.30;83.00
15930;DHT22;8064;51.142;4.780;2022-08-06T08:13:54;22.40;82.90
15930;DHT22;8064;51.142;4.780;2022-08-06T08:16:21;22.50;82.20
15930;DHT22;8064;51.142;4.780;2022-08-06T08:18:47;22.60;81.70
15930;DHT22;8064;51.142;4.780;2022-08-06T08:21:14;22.60;81.60
15930;DHT22;8064;51.142;4.780;2022-08-06T08:23:41;22.80;81.70
15930;DHT22;8064;51.142;4.780;2022-08-06T08:26:08;22.90;81.40
15930;DHT22;8064;51.142;4.780;2022-08-06T08:28:35;23.00;80.80
15930;DHT22;8064;51.142;4.780;2022-08-06T08:31:01;23.00;80.00
15930;DHT22;8064;51.142;4.780;2022-08-06T08:33:29;23.10;79.70
15930;DHT22;8064;51.142;4.780;2022-08-06T08:35:55;23.20;79.20
15930;DHT22;8064;51.142;4.780;2022-08-06T08:38:21;23.20;78.80
15930;DHT22;8064;51.142;4.780;2022-08-06T08:40:49;23.20;78.40
15930;DHT22;8064;51.142;4.780;2022-08-06T08:43:21;23.30;78.10
15930;DHT22;8064;51.142;4.780;2022-08-06T08:45:49;23.30;77.90
15930;DHT22;8064;51.142;4.780;2022-08-06T08:48:23;23.50;77.50
15930;DHT22;8064;51.142;4.780;2022-08-06T08:50:49;23.60;76.70
15930;DHT22;8064;51.142;4.780;2022-08-06T08:53:22;23.70;77.00
15930;DHT22;8064;51.142;4.780;2022-08-06T08:55:51;23.90;77.50
15930;DHT22;8064;51.142;4.780;2022-08-06T08:58:18;24.10;77.30
15930;DHT22;8064;51.142;4.780;2022-08-06T09:00:44;24.30;76.90
15930;DHT22;8064;51.142;4.780;2022-08-06T09:03:10;24.50;76.40
15930;DHT22;8064;51.142;4.780;2022-08-06T09:05:36;24.70;75.90
15930;DHT22;8064;51.142;4.780;2022-08-06T09:08:03;25.00;75.40
15930;DHT22;8064;51.142;4.780;2022-08-06T09:10:29;25.20;74.10
15930;DHT22;8064;51.142;4.780;2022-08-06T09:12:55;25.30;73.10
15930;DHT22;8064;51.142;4.780;2022-08-06T09:15:21;25.40;72.00
15930;DHT22;8064;51.142;4.780;2022-08-06T09:17:47;25.60;71.20
15930;DHT22;8064;51.142;4.780;2022-08-06T09:20:14;25.70;70.50
15930;DHT22;8064;51.142;4.780;2022-08-06T09:22:41;25.80;69.60
15930;DHT22;8064;51.142;4.780;2022-08-06T09:25:42;25.80;68.90
15930;DHT22;8064;51.142;4.780;2022-08-06T09:28:11;25.90;68.20
15930;DHT22;8064;51.142;4.780;2022-08-06T09:30:38;26.00;68.70
15930;DHT22;8064;51.142;4.780;2022-08-06T09:33:11;26.10;67.90
15930;DHT22;8064;51.142;4.780;2022-08-06T09:35:38;26.00;66.70
15930;DHT22;8064;51.142;4.780;2022-08-06T09:38:06;25.90;66.60
15930;DHT22;8064;51.142;4.780;2022-08-06T09:40:33;25.90;66.30
15930;DHT22;8064;51.142;4.780;2022-08-06T09:42:59;26.00;66.00
15930;DHT22;8064;51.142;4.780;2022-08-06T09:45:26;26.00;65.50
15930;DHT22;8064;51.142;4.780;2022-08-06T09:48:09;26.10;65.00
15930;DHT22;8064;51.142;4.780;2022-08-06T09:50:49;26.00;64.00
15930;DHT22;8064;51.142;4.780;2022-08-06T09:53:34;26.00;64.30
15930;DHT22;8064;51.142;4.780;2022-08-06T09:56:00;26.00;64.50
15930;DHT22;8064;51.142;4.780;2022-08-06T09:58:45;26.10;64.20
15930;DHT22;8064;51.142;4.780;2022-08-06T10:01:15;26.30;63.30
15930;DHT22;8064;51.142;4.780;2022-08-06T10:03:42;26.50;62.70
15930;DHT22;8064;51.142;4.780;2022-08-06T10:06:10;26.60;61.90
15930;DHT22;8064;51.142;4.780;2022-08-06T10:08:37;26.80;61.40
15930;DHT22;8064;51.142;4.780;2022-08-06T10:11:03;26.90;61.40
15930;DHT22;8064;51.142;4.780;2022-08-06T10:13:30;26.90;61.00
15930;DHT22;8064;51.142;4.780;2022-08-06T10:15:58;26.70;60.30
15930;DHT22;8064;51.142;4.780;2022-08-06T10:18:44;26.60;60.10
15930;DHT22;8064;51.142;4.780;2022-08-06T10:24:00;26.70;59.80
15930;DHT22;8064;51.142;4.780;2022-08-06T10:26:29;26.80;59.20
15930;DHT22;8064;51.142;4.780;2022-08-06T10:29:01;26.90;58.80
15930;DHT22;8064;51.142;4.780;2022-08-06T10:31:29;27.00;58.60
15930;DHT22;8064;51.142;4.780;2022-08-06T10:34:10;27.20;58.80
15930;DHT22;8064;51.142;4.780;2022-08-06T10:39:23;27.40;57.20
15930;DHT22;8064;51.142;4.780;2022-08-06T10:41:51;27.50;57.40
15930;DHT22;8064;51.142;4.780;2022-08-06T10:44:17;27.50;57.20
15930;DHT22;8064;51.142;4.780;2022-08-06T10:46:43;27.60;56.70
15930;DHT22;8064;51.142;4.780;2022-08-06T10:49:09;27.60;55.90
15930;DHT22;8064;51.142;4.780;2022-08-06T10:51:36;27.70;55.80
15930;DHT22;8064;51.142;4.780;2022-08-06T10:54:03;27.70;55.30
15930;DHT22;8064;51.142;4.780;2022-08-06T10:56:29;27.80;55.30
15930;DHT22;8064;51.142;4.780;2022-08-06T10:58:56;27.90;55.10
15930;DHT22;8064;51.142;4.780;2022-08-06T11:04:35;28.00;54.30
15930;DHT22;8064;51.142;4.780;2022-08-06T11:10:26;28.10;55.50
15930;DHT22;8064;51.142;4.780;2022-08-06T11:15:53;28.20;54.30
15930;DHT22;8064;51.142;4.780;2022-08-06T11:18:21;28.10;54.60
15930;DHT22;8064;51.142;4.780;2022-08-06T11:20:58;28.10;54.00
15930;DHT22;8064;51.142;4.780;2022-08-06T11:23:29;28.00;53.50
15930;DHT22;8064;51.142;4.780;2022-08-06T11:25:58;28.00;53.60
15930;DHT22;8064;51.142;4.780;2022-08-06T11:31:31;27.80;53.00
15930;DHT22;8064;51.142;4.780;2022-08-06T11:33:59;27.60;53.50
15930;DHT22;8064;51.142;4.780;2022-08-06T11:36:26;27.40;53.60
15930;DHT22;8064;51.142;4.780;2022-08-06T11:41:20;26.90;54.40
15930;DHT22;8064;51.142;4.780;2022-08-06T11:44:05;26.70;55.00
15930;DHT22;8064;51.142;4.780;2022-08-06T11:46:34;26.50;55.50
15930;DHT22;8064;51.142;4.780;2022-08-06T11:59:36;25.70;57.40
15930;DHT22;8064;51.142;4.780;2022-08-06T12:02:04;25.60;56.90
15930;DHT22;8064;51.142;4.780;2022-08-06T12:04:47;25.50;56.70
15930;DHT22;8064;51.142;4.780;2022-08-06T12:10:08;25.40;56.30
15930;DHT22;8064;51.142;4.780;2022-08-06T12:12:39;25.20;56.00
15930;DHT22;8064;51.142;4.780;2022-08-06T12:18:08;25.10;56.40
15930;DHT22;8064;51.142;4.780;2022-08-06T12:20:36;25.10;56.00
15930;DHT22;8064;51.142;4.780;2022-08-06T12:23:05;25.00;55.80
15930;DHT22;8064;51.142;4.780;2022-08-06T12:25:53;25.10;56.30
15930;DHT22;8064;51.142;4.780;2022-08-06T12:28:19;25.10;56.50
15930;DHT22;8064;51.142;4.780;2022-08-06T12:30:47;25.20;56.20
15930;DHT22;8064;51.142;4.780;2022-08-06T12:33:15;25.20;55.90
15930;DHT22;8064;51.142;4.780;2022-08-06T12:36:00;25.10;55.70
15930;DHT22;8064;51.142;4.780;2022-08-06T12:38:29;25.10;55.40
15930;DHT22;8064;51.142;4.780;2022-08-06T12:41:07;25.00;56.00
15930;DHT22;8064;51.142;4.780;2022-08-06T12:43:35;24.80;55.90
15930;DHT22;8064;51.142;4.780;2022-08-06T12:46:04;24.70;55.90
15930;DHT22;8064;51.142;4.780;2022-08-06T12:48:32;24.70;56.00
15930;DHT22;8064;51.142;4.780;2022-08-06T12:51:13;24.70;55.90
15930;DHT22;8064;51.142;4.780;2022-08-06T12:53:41;24.70;55.20
15930;DHT22;8064;51.142;4.780;2022-08-06T12:56:07;24.70;55.10
15930;DHT22;8064;51.142;4.780;2022-08-06T12:58:34;24.80;54.90
15930;DHT22;8064;51.142;4.780;2022-08-06T13:01:02;24.80;54.70
15930;DHT22;8064;51.142;4.780;2022-08-06T13:03:29;24.80;54.80
15930;DHT22;8064;51.142;4.780;2022-08-06T13:05:58;24.70;54.90
15930;DHT22;8064;51.142;4.780;2022-08-06T13:08:25;24.60;54.90
15930;DHT22;8064;51.142;4.780;2022-08-06T13:10:54;24.60;55.10
15930;DHT22;8064;51.142;4.780;2022-08-06T13:13:21;24.50;55.00
15930;DHT22;8064;51.142;4.780;2022-08-06T13:18:29;24.40;54.90
15930;DHT22;8064;51.142;4.780;2022-08-06T13:20:55;24.40;55.20
15930;DHT22;8064;51.142;4.780;2022-08-06T13:23:34;24.40;55.10
15930;DHT22;8064;51.142;4.780;2022-08-06T13:26:11;24.40;54.60
15930;DHT22;8064;51.142;4.780;2022-08-06T13:28:37;24.40;54.50
15930;DHT22;8064;51.142;4.780;2022-08-06T13:31:17;24.40;54.50
15930;DHT22;8064;51.142;4.780;2022-08-06T13:33:43;24.40;54.10
15930;DHT22;8064;51.142;4.780;2022-08-06T13:36:09;24.50;54.70
15930;DHT22;8064;51.142;4.780;2022-08-06T13:38:37;24.50;54.80
15930;DHT22;8064;51.142;4.780;2022-08-06T13:41:03;24.60;54.90
15930;DHT22;8064;51.142;4.780;2022-08-06T13:43:43;24.70;54.90
15930;DHT22;8064;51.142;4.780;2022-08-06T13:46:13;24.70;54.40
15930;DHT22;8064;51.142;4.780;2022-08-06T13:48:56;24.80;54.70
15930;DHT22;8064;51.142;4.780;2022-08-06T13:51:23;24.90;55.00
15930;DHT22;8064;51.142;4.780;2022-08-06T13:53:49;25.00;55.00
15930;DHT22;8064;51.142;4.780;2022-08-06T13:56:16;25.00;54.50
15930;DHT22;8064;51.142;4.780;2022-08-06T13:58:43;25.10;54.20
15930;DHT22;8064;51.142;4.780;2022-08-06T14:01:21;25.00;53.90
15930;DHT22;8064;51.142;4.780;2022-08-06T14:03:47;25.00;53.60
15930;DHT22;8064;51.142;4.780;2022-08-06T14:06:12;25.00;54.20
15930;DHT22;8064;51.142;4.780;2022-08-06T14:08:38;24.90;54.00
15930;DHT22;8064;51.142;4.780;2022-08-06T14:11:04;24.80;54.00
15930;DHT22;8064;51.142;4.780;2022-08-06T14:13:30;24.70;54.20
15930;DHT22;8064;51.142;4.780;2022-08-06T14:15:57;24.60;54.40
15930;DHT22;8064;51.142;4.780;2022-08-06T14:18:26;24.70;54.40
15930;DHT22;8064;51.142;4.780;2022-08-06T14:20:52;24.70;54.30
15930;DHT22;8064;51.142;4.780;2022-08-06T14:23:18;24.60;54.70
15930;DHT22;8064;51.142;4.780;2022-08-06T14:25:45;24.70;54.70
15930;DHT22;8064;51.142;4.780;2022-08-06T14:28:10;24.70;54.10
15930;DHT22;8064;51.142;4.780;2022-08-06T14:30:36;24.70;53.90
15930;DHT22;8064;51.142;4.780;2022-08-06T14:33:04;24.70;53.80
15930;DHT22;8064;51.142;4.780;2022-08-06T14:35:33;24.70;53.80
15930;DHT22;8064;51.142;4.780;2022-08-06T14:38:00;24.80;53.90
15930;DHT22;8064;51.142;4.780;2022-08-06T14:40:26;24.70;53.80
15930;DHT22;8064;51.142;4.780;2022-08-06T14:43:10;24.70;53.50
15930;DHT22;8064;51.142;4.780;2022-08-06T14:45:54;24.70;53.70
15930;DHT22;8064;51.142;4.780;2022-08-06T14:48:19;24.70;53.60
15930;DHT22;8064;51.142;4.780;2022-08-06T14:50:45;24.70;53.30
15930;DHT22;8064;51.142;4.780;2022-08-06T14:53:11;24.70;53.00
15930;DHT22;8064;51.142;4.780;2022-08-06T14:55:37;24.70;52.70
15930;DHT22;8064;51.142;4.780;2022-08-06T14:58:02;24.60;52.60
15930;DHT22;8064;51.142;4.780;2022-08-06T15:00:28;24.60;52.70
15930;DHT22;8064;51.142;4.780;2022-08-06T15:02:54;24.60;52.60
15930;DHT22;8064;51.142;4.780;2022-08-06T15:05:20;24.60;52.60
15930;DHT22;8064;51.142;4.780;2022-08-06T15:07:46;24.60;52.50
15930;DHT22;8064;51.142;4.780;2022-08-06T15:10:11;24.60;52.60
15930;DHT22;8064;51.142;4.780;2022-08-06T15:12:37;24.60;52.50
15930;DHT22;8064;51.142;4.780;2022-08-06T15:15:04;24.70;52.20
15930;DHT22;8064;51.142;4.780;2022-08-06T15:17:30;24.70;52.20
15930;DHT22;8064;51.142;4.780;2022-08-06T15:19:56;24.60;51.90
15930;DHT22;8064;51.142;4.780;2022-08-06T15:22:22;24.60;52.10
15930;DHT22;8064;51.142;4.780;2022-08-06T15:24:48;24.60;52.60
15930;DHT22;8064;51.142;4.780;2022-08-06T15:27:13;24.60;53.10
15930;DHT22;8064;51.142;4.780;2022-08-06T15:29:46;24.60;53.60
15930;DHT22;8064;51.142;4.780;2022-08-06T15:32:12;24.60;54.00
15930;DHT22;8064;51.142;4.780;2022-08-06T15:34:38;24.70;54.40
15930;DHT22;8064;51.142;4.780;2022-08-06T15:37:03;24.80;54.50
15930;DHT22;8064;51.142;4.780;2022-08-06T15:39:32;24.90;54.90
15930;DHT22;8064;51.142;4.780;2022-08-06T15:41:58;24.90;53.80
15930;DHT22;8064;51.142;4.780;2022-08-06T15:44:24;24.90;53.40
15930;DHT22;8064;51.142;4.780;2022-08-06T15:46:50;24.90;53.20
15930;DHT22;8064;51.142;4.780;2022-08-06T15:49:15;24.80;53.00
15930;DHT22;8064;51.142;4.780;2022-08-06T15:51:41;24.70;53.00
15930;DHT22;8064;51.142;4.780;2022-08-06T15:54:07;24.70;53.00
15930;DHT22;8064;51.142;4.780;2022-08-06T15:56:33;24.70;52.90
15930;DHT22;8064;51.142;4.780;2022-08-06T15:58:59;24.60;52.80
15930;DHT22;8064;51.142;4.780;2022-08-06T16:01:25;24.60;53.00
15930;DHT22;8064;51.142;4.780;2022-08-06T16:03:51;24.50;53.10
15930;DHT22;8064;51.142;4.780;2022-08-06T16:06:17;24.50;53.20
15930;DHT22;8064;51.142;4.780;2022-08-06T16:08:42;24.50;53.30
15930;DHT22;8064;51.142;4.780;2022-08-06T16:11:10;24.40;53.40
15930;DHT22;8064;51.142;4.780;2022-08-06T16:13:37;24.30;53.60
15930;DHT22;8064;51.142;4.780;2022-08-06T16:16:03;24.30;53.60
15930;DHT22;8064;51.142;4.780;2022-08-06T16:18:30;24.20;53.50
15930;DHT22;8064;51.142;4.780;2022-08-06T16:20:58;24.20;54.20
15930;DHT22;8064;51.142;4.780;2022-08-06T16:23:24;24.10;53.60
15930;DHT22;8064;51.142;4.780;2022-08-06T16:25:50;24.00;53.80
15930;DHT22;8064;51.142;4.780;2022-08-06T16:28:17;24.00;53.90
15930;DHT22;8064;51.142;4.780;2022-08-06T16:30:43;23.90;54.20
15930;DHT22;8064;51.142;4.780;2022-08-06T16:33:09;23.80;54.80
15930;DHT22;8064;51.142;4.780;2022-08-06T16:35:35;23.70;54.60
15930;DHT22;8064;51.142;4.780;2022-08-06T16:38:01;23.60;54.40
15930;DHT22;8064;51.142;4.780;2022-08-06T16:40:27;23.50;54.70
15930;DHT22;8064;51.142;4.780;2022-08-06T16:42:54;23.40;54.90
15930;DHT22;8064;51.142;4.780;2022-08-06T16:45:22;23.30;54.80
15930;DHT22;8064;51.142;4.780;2022-08-06T16:47:49;23.30;54.90
15930;DHT22;8064;51.142;4.780;2022-08-06T16:50:16;23.20;55.30
15930;DHT22;8064;51.142;4.780;2022-08-06T16:52:42;23.20;55.50
15930;DHT22;8064;51.142;4.780;2022-08-06T16:55:09;23.20;55.50
15930;DHT22;8064;51.142;4.780;2022-08-06T16:57:35;23.20;55.40
15930;DHT22;8064;51.142;4.780;2022-08-06T17:00:02;23.30;55.40
15930;DHT22;8064;51.142;4.780;2022-08-06T17:02:28;23.30;55.40
15930;DHT22;8064;51.142;4.780;2022-08-06T17:05:10;23.30;56.00
15930;DHT22;8064;51.142;4.780;2022-08-06T17:07:37;23.40;55.10